sensor_id;sensor_type;location;lat;lon;timestamp;pressure;altitude;pressure_sealevel;temperature;humidity
48390;BME280;34643;47.964;7.982;2023-08-17T00:02:13;96817.72;;;24.99;58.77
48390;BME280;34643;47.964;7.982;2023-08-17T00:07:14;96814.28;;;24.99;58.78
48390;BME280;34643;47.964;7.982;2023-08-17T00:12:14;96818.59;;;25.00;58.92
48390;BME280;34643;47.964;7.982;2023-08-17T00:17:14;96810.81;;;24.98;58.89
48390;BME280;34643;47.964;7.982;2023-08-17T00:22:14;96804.72;;;24.98;58.82
48390;BME280;34643;47.964;7.982;2023-08-17T00:27:15;96810.81;;;24.98;58.76
48390;BME280;34643;47.964;7.982;2023-08-17T00:32:17;96805.53;;;24.98;59.04
48390;BME280;34643;47.964;7.982;2023-08-17T00:37:17;96801.22;;;24.97;58.95
48390;BME280;34643;47.964;7.982;2023-08-17T00:42:17;96789.03;;;24.96;58.86
48390;BME280;34643;47.964;7.982;2023-08-17T00:47:18;96790.66;;;24.97;58.87
48390;BME280;34643;47.964;7.982;2023-08-17T00:52:18;96790.66;;;24.97;58.91
48390;BME280;34643;47.964;7.982;2023-08-17T00:57:18;96794.31;;;24.96;59.11
48390;BME280;34643;47.964;7.982;2023-08-17T01:02:20;96789.84;;;24.97;58.84
48390;BME280;34643;47.964;7.982;2023-08-17T01:07:20;96780.25;;;24.96;59.13
48390;BME280;34643;47.964;7.982;2023-08-17T01:22:49;96790.00;;;24.95;58.85
48390;BME280;34643;47.964;7.982;2023-08-17T01:27:50;96797.13;;;24.95;58.79
48390;BME280;34643;47.964;7.982;2023-08-17T01:32:51;96784.72;;;24.95;58.87
48390;BME280;34643;47.964;7.982;2023-08-17T01:37:53;96794.47;;;24.95;58.88
48390;BME280;34643;47.964;7.982;2023-08-17T01:42:55;96798.91;;;24.94;59.02
48390;BME280;34643;47.964;7.982;2023-08-17T01:47:56;96809.47;;;24.94;58.98
48390;BME280;34643;47.964;7.982;2023-08-17T01:52:56;96813.94;;;24.94;58.94
48390;BME280;34643;47.964;7.982;2023-08-17T01:57:56;96808.66;;;24.94;58.82
48390;BME280;34643;47.964;7.982;2023-08-17T02:02:56;96813.13;;;24.93;58.74
48390;BME280;34643;47.964;7.982;2023-08-17T02:07:58;96813.13;;;24.93;59.07
48390;BME280;34643;47.964;7.982;2023-08-17T02:13:02;96807.84;;;24.93;58.88
48390;BME280;34643;47.964;7.982;2023-08-17T02:18:02;96801.72;;;24.93;58.88
48390;BME280;34643;47.964;7.982;2023-08-17T02:23:03;96785.91;;;24.93;58.89
48390;BME280;34643;47.964;7.982;2023-08-17T02:28:04;96785.06;;;24.92;58.67
48390;BME280;34643;47.964;7.982;2023-08-17T02:33:04;96786.06;;;24.91;59.00
48390;BME280;34643;47.964;7.982;2023-08-17T02:38:06;96782.41;;;24.92;58.72
48390;BME280;34643;47.964;7.982;2023-08-17T02:43:06;96782.56;;;24.91;58.60
48390;BME280;34643;47.964;7.982;2023-08-17T02:48:06;96775.50;;;24.91;58.80
48390;BME280;34643;47.964;7.982;2023-08-17T02:53:07;96770.38;;;24.90;58.94
48390;BME280;34643;47.964;7.982;2023-08-17T02:58:07;96765.75;;;24.92;58.70
48390;BME280;34643;47.964;7.982;2023-08-17T03:03:08;96761.44;;;24.91;59.04
48390;BME280;34643;47.964;7.982;2023-08-17T03:08:08;96765.91;;;24.90;58.95
48390;BME280;34643;47.964;7.982;2023-08-17T03:13:08;96759.81;;;24.90;58.69
48390;BME280;34643;47.964;7.982;2023-08-17T03:18:08;96754.53;;;24.90;58.74
48390;BME280;34643;47.964;7.982;2023-08-17T03:23:10;96752.88;;;24.89;58.58
48390;BME280;34643;47.964;7.982;2023-08-17T03:28:12;96756.50;;;24.88;58.71
48390;BME280;34643;47.964;7.982;2023-08-17T03:33:12;96752.06;;;24.88;58.65
48390;BME280;34643;47.964;7.982;2023-08-17T03:38:12;96759.16;;;24.88;58.77
48390;BME280;34643;47.964;7.982;2023-08-17T03:43:13;96751.22;;;24.88;58.71
48390;BME280;34643;47.964;7.982;2023-08-17T03:48:14;96754.03;;;24.86;58.91
48390;BME280;34643;47.964;7.982;2023-08-17T03:53:14;96754.84;;;24.86;58.54
48390;BME280;34643;47.964;7.982;2023-08-17T03:58:15;96767.38;;;24.84;58.65
48390;BME280;34643;47.964;7.982;2023-08-17T04:03:15;96768.19;;;24.85;58.68
48390;BME280;34643;47.964;7.982;2023-08-17T04:08:15;96771.84;;;24.84;58.66
48390;BME280;34643;47.964;7.982;2023-08-17T04:13:16;96770.19;;;24.83;58.81
48390;BME280;34643;47.964;7.982;2023-08-17T04:18:16;96778.91;;;24.83;58.68
48390;BME280;34643;47.964;7.982;2023-08-17T04:23:16;96786.84;;;24.83;58.90
48390;BME280;34643;47.964;7.982;2023-08-17T04:28:17;96784.38;;;24.82;58.70
48390;BME280;34643;47.964;7.982;2023-08-17T04:33:19;96790.47;;;24.82;58.64
48390;BME280;34643;47.964;7.982;2023-08-17T04:38:19;96787.03;;;24.82;58.54
48390;BME280;34643;47.964;7.982;2023-08-17T04:43:20;96787.03;;;24.82;58.70
48390;BME280;34643;47.964;7.982;2023-08-17T04:48:20;96781.91;;;24.80;58.62
48390;BME280;34643;47.964;7.982;2023-08-17T04:53:22;96783.69;;;24.80;58.69
48390;BME280;34643;47.964;7.982;2023-08-17T04:58:23;96779.41;;;24.79;58.58
48390;BME280;34643;47.964;7.982;2023-08-17T05:03:24;96778.59;;;24.78;58.56
48390;BME280;34643;47.964;7.982;2023-08-17T05:08:24;96779.41;;;24.79;58.61
48390;BME280;34643;47.964;7.982;2023-08-17T05:13:25;96779.56;;;24.77;58.64
48390;BME280;34643;47.964;7.982;2023-08-17T05:18:26;96779.56;;;24.77;58.65
48390;BME280;34643;47.964;7.982;2023-08-17T05:23:26;96784.03;;;24.77;58.67
48390;BME280;34643;47.964;7.982;2023-08-17T05:28:27;96784.84;;;24.77;58.67
48390;BME280;34643;47.964;7.982;2023-08-17T05:33:27;96784.03;;;24.77;58.52
48390;BME280;34643;47.964;7.982;2023-08-17T05:38:27;96785.00;;;24.76;58.66
48390;BME280;34643;47.964;7.982;2023-08-17T05:43:28;96786.84;;;24.75;58.58
48390;BME280;34643;47.964;7.982;2023-08-17T05:48:28;96788.63;;;24.75;58.62
48390;BME280;34643;47.964;7.982;2023-08-17T05:53:29;96790.28;;;24.76;58.71
48390;BME280;34643;47.964;7.982;2023-08-17T05:58:29;96791.09;;;24.76;58.66
48390;BME280;34643;47.964;7.982;2023-08-17T06:03:30;96786.00;;;24.75;58.38
48390;BME280;34643;47.964;7.982;2023-08-17T06:08:30;96795.56;;;24.76;58.79
48390;BME280;34643;47.964;7.982;2023-08-17T06:13:31;96785.84;;;24.76;58.38
48390;BME280;34643;47.964;7.982;2023-08-17T06:18:31;96788.63;;;24.75;58.71
48390;BME280;34643;47.964;7.982;2023-08-17T06:23:31;96792.13;;;24.75;58.53
48390;BME280;34643;47.964;7.982;2023-08-17T06:28:32;96780.56;;;24.76;58.64
48390;BME280;34643;47.964;7.982;2023-08-17T06:33:32;96773.63;;;24.75;58.44
48390;BME280;34643;47.964;7.982;2023-08-17T06:38:32;96781.56;;;24.75;58.44
48390;BME280;34643;47.964;7.982;2023-08-17T06:43:33;96786.84;;;24.75;58.47
48390;BME280;34643;47.964;7.982;2023-08-17T06:48:33;96800.03;;;24.75;58.47
48390;BME280;34643;47.964;7.982;2023-08-17T06:53:33;96802.66;;;24.75;58.55
48390;BME280;34643;47.964;7.982;2023-08-17T06:58:33;96805.31;;;24.75;58.48
48390;BME280;34643;47.964;7.982;2023-08-17T07:03:34;96806.13;;;24.76;58.72
48390;BME280;34643;47.964;7.982;2023-08-17T07:08:34;96809.59;;;24.76;58.74
48390;BME280;34643;47.964;7.982;2023-08-17T07:13:35;96812.22;;;24.76;58.32
48390;BME280;34643;47.964;7.982;2023-08-17T07:18:35;96821.00;;;24.77;58.64
48390;BME280;34643;47.964;7.982;2023-08-17T07:23:35;96830.53;;;24.78;58.43
48390;BME280;34643;47.964;7.982;2023-08-17T07:28:35;96828.91;;;24.77;58.74
48390;BME280;34643;47.964;7.982;2023-08-17T07:33:36;96837.66;;;24.77;58.50
48390;BME280;34643;47.964;7.982;2023-08-17T07:38:36;96829.72;;;24.77;58.63
48390;BME280;34643;47.964;7.982;2023-08-17T07:43:36;96844.59;;;24.78;58.35
48390;BME280;34643;47.964;7.982;2023-08-17T07:48:37;96843.59;;;24.79;58.76
48390;BME280;34643;47.964;7.982;2023-08-17T07:53:37;96850.69;;;24.79;58.61
48390;BME280;34643;47.964;7.982;2023-08-17T07:58:37;96844.41;;;24.80;58.84
48390;BME280;34643;47.964;7.982;2023-08-17T08:03:38;96858.44;;;24.80;58.60
48390;BME280;34643;47.964;7.982;2023-08-17T08:08:39;96872.47;;;24.81;58.68
48390;BME280;34643;47.964;7.982;2023-08-17T08:13:39;96870.66;;;24.81;58.54
48390;BME280;34643;47.964;7.982;2023-08-17T08:18:39;96875.09;;;24.81;58.62
48390;BME280;34643;47.964;7.982;2023-08-17T08:23:40;96873.28;;;24.81;58.66
48390;BME280;34643;47.964;7.982;2023-08-17T08:28:40;96876.94;;;24.80;58.71
48390;BME280;34643;47.964;7.982;2023-08-17T08:33:40;96876.94;;;24.80;58.54
48390;BME280;34643;47.964;7.982;2023-08-17T08:38:41;96873.28;;;24.81;58.82
48390;BME280;34643;47.964;7.982;2023-08-17T08:43:41;96881.22;;;24.81;58.43
48390;BME280;34643;47.964;7.982;2023-08-17T08:48:41;96886.34;;;24.83;58.63
48390;BME280;34643;47.964;7.982;2023-08-17T08:53:45;96889.97;;;24.82;58.66
48390;BME280;34643;47.964;7.982;2023-08-17T08:58:46;96890.13;;;24.80;58.69
48390;BME280;34643;47.964;7.982;2023-08-17T09:03:47;96889.13;;;24.81;58.62
48390;BME280;34643;47.964;7.982;2023-08-17T09:08:47;96877.59;;;24.82;58.88
48390;BME280;34643;47.964;7.982;2023-08-17T09:13:48;96875.94;;;24.81;58.67
48390;BME280;34643;47.964;7.982;2023-08-17T09:18:48;96876.78;;;24.82;58.87
48390;BME280;34643;47.964;7.982;2023-08-17T09:23:52;96867.03;;;24.82;58.56
48390;BME280;34643;47.964;7.982;2023-08-17T09:28:53;96860.75;;;24.83;58.85
48390;BME280;34643;47.964;7.982;2023-08-17T09:33:58;96851.03;;;24.84;58.67
48390;BME280;34643;47.964;7.982;2023-08-17T09:38:58;96850.19;;;24.83;58.78
48390;BME280;34643;47.964;7.982;2023-08-17T09:44:00;96857.13;;;24.84;58.80
48390;BME280;34643;47.964;7.982;2023-08-17T09:49:04;96860.59;;;24.85;58.77
48390;BME280;34643;47.964;7.982;2023-08-17T09:54:05;96852.69;;;24.85;58.60
48390;BME280;34643;47.964;7.982;2023-08-17T09:59:06;96843.78;;;24.86;58.86
48390;BME280;34643;47.964;7.982;2023-08-17T10:04:06;96838.50;;;24.86;58.60
48390;BME280;34643;47.964;7.982;2023-08-17T10:09:06;96841.97;;;24.86;58.64
48390;BME280;34643;47.964;7.982;2023-08-17T10:14:12;96841.00;;;24.88;58.65
48390;BME280;34643;47.964;7.982;2023-08-17T10:24:14;96847.91;;;24.89;58.69
48390;BME280;34643;47.964;7.982;2023-08-17T10:29:15;96838.19;;;24.89;58.72
48390;BME280;34643;47.964;7.982;2023-08-17T10:34:16;96831.09;;;24.90;58.78
48390;BME280;34643;47.964;7.982;2023-08-17T10:39:27;96834.56;;;24.90;58.83
48390;BME280;34643;47.964;7.982;2023-08-17T10:44:46;96825.66;;;24.91;58.86
48390;BME280;34643;47.964;7.982;2023-08-17T10:49:50;96825.66;;;24.91;58.97
48390;BME280;34643;47.964;7.982;2023-08-17T10:54:51;96813.28;;;24.92;58.93
48390;BME280;34643;47.964;7.982;2023-08-17T11:00:07;96813.94;;;24.94;58.85
48390;BME280;34643;47.964;7.982;2023-08-17T11:05:21;96794.63;;;24.93;58.92
48390;BME280;34643;47.964;7.982;2023-08-17T11:10:33;96781.44;;;24.93;59.06
48390;BME280;34643;47.964;7.982;2023-08-17T11:15:35;96771.69;;;24.94;58.94
48390;BME280;34643;47.964;7.982;2023-08-17T11:20:40;96767.22;;;24.94;58.79
48390;BME280;34643;47.964;7.982;2023-08-17T11:25:41;96765.44;;;24.95;58.97
48390;BME280;34643;47.964;7.982;2023-08-17T11:30:42;96766.25;;;24.95;58.80
48390;BME280;34643;47.964;7.982;2023-08-17T11:35:43;96769.72;;;24.96;58.90
48390;BME280;34643;47.964;7.982;2023-08-17T11:40:44;96768.72;;;24.97;58.83
48390;BME280;34643;47.964;7.982;2023-08-17T11:45:44;96755.53;;;24.97;58.99
48390;BME280;34643;47.964;7.982;2023-08-17T11:50:45;96757.19;;;24.98;58.88
48390;BME280;34643;47.964;7.982;2023-08-17T11:55:45;96751.91;;;24.98;59.06
48390;BME280;34643;47.964;7.982;2023-08-17T12:00:45;96743.81;;;24.99;58.68
48390;BME280;34643;47.964;7.982;2023-08-17T12:05:47;96735.06;;;24.99;58.95
48390;BME280;34643;47.964;7.982;2023-08-17T12:10:51;96736.72;;;25.00;59.10
48390;BME280;34643;47.964;7.982;2023-08-17T12:15:52;96733.09;;;25.01;58.81
48390;BME280;34643;47.964;7.982;2023-08-17T12:20:52;96731.44;;;25.00;58.92
48390;BME280;34643;47.964;7.982;2023-08-17T12:25:53;96730.28;;;25.02;58.91
48390;BME280;34643;47.964;7.982;2023-08-17T12:31:01;96727.63;;;25.02;58.89
48390;BME280;34643;47.964;7.982;2023-08-17T12:36:01;96724.84;;;25.04;58.94
48390;BME280;34643;47.964;7.982;2023-08-17T12:41:02;96724.84;;;25.04;58.73
48390;BME280;34643;47.964;7.982;2023-08-17T12:46:02;96725.66;;;25.04;58.97
48390;BME280;34643;47.964;7.982;2023-08-17T12:51:02;96720.38;;;25.04;58.97
48390;BME280;34643;47.964;7.982;2023-08-17T12:56:03;96729.16;;;25.05;59.18
48390;BME280;34643;47.964;7.982;2023-08-17T13:01:03;96731.78;;;25.05;58.97
48390;BME280;34643;47.964;7.982;2023-08-17T13:06:04;96728.97;;;25.07;59.12
48390;BME280;34643;47.964;7.982;2023-08-17T13:11:04;96725.50;;;25.06;58.87
48390;BME280;34643;47.964;7.982;2023-08-17T13:16:04;96728.13;;;25.06;59.18
48390;BME280;34643;47.964;7.982;2023-08-17T13:21:05;96732.28;;;25.09;59.14
48390;BME280;34643;47.964;7.982;2023-08-17T13:26:05;96728.78;;;25.08;59.00
48390;BME280;34643;47.964;7.982;2023-08-17T13:31:05;96728.78;;;25.08;58.91
48390;BME280;34643;47.964;7.982;2023-08-17T13:36:06;96729.44;;;25.10;59.01
48390;BME280;34643;47.964;7.982;2023-08-17T13:41:06;96729.44;;;25.10;58.97
48390;BME280;34643;47.964;7.982;2023-08-17T13:46:06;96735.59;;;25.11;58.95
48390;BME280;34643;47.964;7.982;2023-08-17T13:51:07;96731.94;;;25.12;58.95
48390;BME280;34643;47.964;7.982;2023-08-17T13:56:07;96728.47;;;25.11;59.12
48390;BME280;34643;47.964;7.982;2023-08-17T14:01:08;96724.84;;;25.12;59.04
48390;BME280;34643;47.964;7.982;2023-08-17T14:06:08;96716.94;;;25.12;58.92
48390;BME280;34643;47.964;7.982;2023-08-17T14:11:08;96717.75;;;25.13;58.90
48390;BME280;34643;47.964;7.982;2023-08-17T14:16:08;96727.31;;;25.14;58.80
48390;BME280;34643;47.964;7.982;2023-08-17T14:21:09;96725.50;;;25.14;59.01
48390;BME280;34643;47.964;7.982;2023-08-17T14:26:09;96716.59;;;25.15;59.12
48390;BME280;34643;47.964;7.982;2023-08-17T14:31:09;96716.59;;;25.15;59.13
48390;BME280;34643;47.964;7.982;2023-08-17T14:36:12;96715.59;;;25.16;59.10
48390;BME280;34643;47.964;7.982;2023-08-17T14:41:12;96712.16;;;25.16;58.97
48390;BME280;34643;47.964;7.982;2023-08-17T14:46:12;96706.88;;;25.16;58.98
48390;BME280;34643;47.964;7.982;2023-08-17T14:51:13;96704.03;;;25.17;58.84
48390;BME280;34643;47.964;7.982;2023-08-17T14:56:13;96696.09;;;25.17;59.10
48390;BME280;34643;47.964;7.982;2023-08-17T15:01:13;96702.25;;;25.18;59.29
48390;BME280;34643;47.964;7.982;2023-08-17T15:06:13;96700.41;;;25.18;59.21
48390;BME280;34643;47.964;7.982;2023-08-17T15:11:14;96702.09;;;25.19;59.01
48390;BME280;34643;47.964;7.982;2023-08-17T15:16:14;96694.97;;;25.20;59.09
48390;BME280;34643;47.964;7.982;2023-08-17T15:21:14;96693.16;;;25.20;59.02
48390;BME280;34643;47.964;7.982;2023-08-17T15:26:15;96688.88;;;25.19;59.07
48390;BME280;34643;47.964;7.982;2023-08-17T15:31:15;96685.22;;;25.20;59.08
48390;BME280;34643;47.964;7.982;2023-08-17T15:36:16;96692.34;;;25.20;59.10
48390;BME280;34643;47.964;7.982;2023-08-17T15:41:21;96686.06;;;25.21;58.99
48390;BME280;34643;47.964;7.982;2023-08-17T15:46:21;96682.59;;;25.20;58.84
48390;BME280;34643;47.964;7.982;2023-08-17T15:51:22;96686.88;;;25.21;59.12
48390;BME280;34643;47.964;7.982;2023-08-17T15:56:23;96681.59;;;25.21;59.01
48390;BME280;34643;47.964;7.982;2023-08-17T16:01:23;96675.31;;;25.22;59.03
48390;BME280;34643;47.964;7.982;2023-08-17T16:06:23;96673.53;;;25.23;58.93
48390;BME280;34643;47.964;7.982;2023-08-17T16:11:24;96673.69;;;25.21;58.86
48390;BME280;34643;47.964;7.982;2023-08-17T16:16:24;96664.75;;;25.22;59.08
48390;BME280;34643;47.964;7.982;2023-08-17T16:21:24;96667.38;;;25.22;59.03
48390;BME280;34643;47.964;7.982;2023-08-17T16:26:25;96663.78;;;25.23;58.87
48390;BME280;34643;47.964;7.982;2023-08-17T16:31:25;96655.84;;;25.23;58.83
48390;BME280;34643;47.964;7.982;2023-08-17T16:36:25;96656.66;;;25.24;59.20
48390;BME280;34643;47.964;7.982;2023-08-17T16:41:25;96653.06;;;25.25;58.98
48390;BME280;34643;47.964;7.982;2023-08-17T16:46:26;96644.34;;;25.25;59.04
48390;BME280;34643;47.964;7.982;2023-08-17T16:51:26;96642.50;;;25.25;59.05
48390;BME280;34643;47.964;7.982;2023-08-17T16:56:26;96645.16;;;25.25;58.98
48390;BME280;34643;47.964;7.982;2023-08-17T17:01:27;96649.44;;;25.26;58.91
48390;BME280;34643;47.964;7.982;2023-08-17T17:06:27;96643.31;;;25.26;59.08
48390;BME280;34643;47.964;7.982;2023-08-17T17:11:27;96650.28;;;25.27;58.81
48390;BME280;34643;47.964;7.982;2023-08-17T17:16:28;96655.56;;;25.27;58.91
48390;BME280;34643;47.964;7.982;2023-08-17T17:21:28;96664.28;;;25.27;58.82
48390;BME280;34643;47.964;7.982;2023-08-17T17:26:28;96655.56;;;25.27;59.02
48390;BME280;34643;47.964;7.982;2023-08-17T17:31:28;96667.75;;;25.28;59.12
48390;BME280;34643;47.964;7.982;2023-08-17T17:36:29;96670.41;;;25.28;59.02
48390;BME280;34643;47.964;7.982;2023-08-17T17:41:29;96668.59;;;25.28;59.07
48390;BME280;34643;47.964;7.982;2023-08-17T17:46:29;96673.03;;;25.28;59.15
48390;BME280;34643;47.964;7.982;2023-08-17T17:51:30;96657.19;;;25.28;58.93
48390;BME280;34643;47.964;7.982;2023-08-17T17:56:37;96663.31;;;25.28;58.96
48390;BME280;34643;47.964;7.982;2023-08-17T18:01:38;96664.13;;;25.29;59.09
48390;BME280;34643;47.964;7.982;2023-08-17T18:06:39;96657.03;;;25.29;59.19
48390;BME280;34643;47.964;7.982;2023-08-17T18:11:39;96658.84;;;25.29;58.93
48390;BME280;34643;47.964;7.982;2023-08-17T18:16:41;96660.47;;;25.30;59.00
48390;BME280;34643;47.964;7.982;2023-08-17T18:21:41;96671.03;;;25.30;59.09
48390;BME280;34643;47.964;7.982;2023-08-17T18:26:41;96668.41;;;25.30;58.95
48390;BME280;34643;47.964;7.982;2023-08-17T18:31:42;96670.22;;;25.29;58.85
48390;BME280;34643;47.964;7.982;2023-08-17T18:36:43;96673.69;;;25.30;58.86
48390;BME280;34643;47.964;7.982;2023-08-17T18:41:43;96664.94;;;25.29;58.89
48390;BME280;34643;47.964;7.982;2023-08-17T18:46:44;96665.75;;;25.30;58.85
48390;BME280;34643;47.964;7.982;2023-08-17T18:51:44;96665.75;;;25.30;58.92
48390;BME280;34643;47.964;7.982;2023-08-17T18:56:44;96665.75;;;25.30;58.85
48390;BME280;34643;47.964;7.982;2023-08-17T19:01:44;96668.41;;;25.30;58.85
48390;BME280;34643;47.964;7.982;2023-08-17T19:06:45;96678.97;;;25.30;58.95
48390;BME280;34643;47.964;7.982;2023-08-17T19:11:45;96678.97;;;25.30;58.94
48390;BME280;34643;47.964;7.982;2023-08-17T19:16:45;96685.09;;;25.30;59.02
48390;BME280;34643;47.964;7.982;2023-08-17T19:21:46;96672.72;;;25.31;58.98
48390;BME280;34643;47.964;7.982;2023-08-17T19:26:46;96676.31;;;25.30;58.72
48390;BME280;34643;47.964;7.982;2023-08-17T19:31:46;96686.91;;;25.30;58.84
48390;BME280;34643;47.964;7.982;2023-08-17T19:36:48;96690.38;;;25.30;58.92
48390;BME280;34643;47.964;7.982;2023-08-17T19:41:49;96691.19;;;25.31;58.77
48390;BME280;34643;47.964;7.982;2023-08-17T19:46:49;96692.19;;;25.30;58.98
48390;BME280;34643;47.964;7.982;2023-08-17T19:51:50;96696.47;;;25.31;58.95
48390;BME280;34643;47.964;7.982;2023-08-17T19:56:50;96692.19;;;25.30;58.85
48390;BME280;34643;47.964;7.982;2023-08-17T20:01:51;96693.03;;;25.30;58.88
48390;BME280;34643;47.964;7.982;2023-08-17T20:06:51;96697.47;;;25.30;58.82
48390;BME280;34643;47.964;7.982;2023-08-17T20:11:51;96698.31;;;25.30;58.93
48390;BME280;34643;47.964;7.982;2023-08-17T20:16:52;96702.75;;;25.30;58.96
48390;BME280;34643;47.964;7.982;2023-08-17T20:21:52;96712.34;;;25.31;58.95
48390;BME280;34643;47.964;7.982;2023-08-17T20:26:52;96704.56;;;25.29;59.06
48390;BME280;34643;47.964;7.982;2023-08-17T20:31:53;96703.75;;;25.29;58.92
48390;BME280;34643;47.964;7.982;2023-08-17T20:36:53;96708.03;;;25.30;58.80
48390;BME280;34643;47.964;7.982;2023-08-17T20:41:53;96712.50;;;25.29;58.71
48390;BME280;34643;47.964;7.982;2023-08-17T20:46:54;96722.25;;;25.29;58.62
48390;BME280;34643;47.964;7.982;2023-08-17T20:51:54;96722.25;;;25.29;58.92
48390;BME280;34643;47.964;7.982;2023-08-17T20:56:55;96724.88;;;25.29;58.76
48390;BME280;34643;47.964;7.982;2023-08-17T21:01:55;96722.25;;;25.29;58.92
48390;BME280;34643;47.964;7.982;2023-08-17T21:06:55;96714.31;;;25.29;58.70
48390;BME280;34643;47.964;7.982;2023-08-17T21:11:55;96718.78;;;25.28;58.87
48390;BME280;34643;47.964;7.982;2023-08-17T21:16:58;96713.50;;;25.28;58.89
48390;BME280;34643;47.964;7.982;2023-08-17T21:21:58;96707.38;;;25.28;58.92
48390;BME280;34643;47.964;7.982;2023-08-17T21:26:58;96708.22;;;25.28;58.93
48390;BME280;34643;47.964;7.982;2023-08-17T21:31:59;96711.69;;;25.29;58.69
48390;BME280;34643;47.964;7.982;2023-08-17T21:37:05;96705.56;;;25.28;58.70
48390;BME280;34643;47.964;7.982;2023-08-17T21:42:05;96705.56;;;25.28;58.80
48390;BME280;34643;47.964;7.982;2023-08-17T21:47:05;96712.66;;;25.28;58.72
48390;BME280;34643;47.964;7.982;2023-08-17T21:52:06;96712.66;;;25.28;58.82
48390;BME280;34643;47.964;7.982;2023-08-17T21:57:06;96701.28;;;25.27;58.50
48390;BME280;34643;47.964;7.982;2023-08-17T22:02:06;96715.28;;;25.28;58.76
48390;BME280;34643;47.964;7.982;2023-08-17T22:07:07;96712.66;;;25.28;58.53
48390;BME280;34643;47.964;7.982;2023-08-17T22:12:07;96710.00;;;25.28;58.94
48390;BME280;34643;47.964;7.982;2023-08-17T22:17:07;96708.38;;;25.27;58.54
48390;BME280;34643;47.964;7.982;2023-08-17T22:22:08;96703.91;;;25.27;58.63
48390;BME280;34643;47.964;7.982;2023-08-17T22:27:08;96697.81;;;25.27;58.61
48390;BME280;34643;47.964;7.982;2023-08-17T22:32:08;96697.81;;;25.27;58.83
48390;BME280;34643;47.964;7.982;2023-08-17T22:37:09;96703.09;;;25.27;58.60
48390;BME280;34643;47.964;7.982;2023-08-17T22:42:09;96704.88;;;25.26;58.90
48390;BME280;34643;47.964;7.982;2023-08-17T22:47:10;96704.88;;;25.26;58.66
48390;BME280;34643;47.964;7.982;2023-08-17T22:52:10;96709.34;;;25.26;58.91
48390;BME280;34643;47.964;7.982;2023-08-17T22:57:10;96712.00;;;25.26;58.63
48390;BME280;34643;47.964;7.982;2023-08-17T23:02:11;96709.50;;;25.24;58.71
48390;BME280;34643;47.964;7.982;2023-08-17T23:07:12;96701.56;;;25.24;58.69
48390;BME280;34643;47.964;7.982;2023-08-17T23:12:12;96703.38;;;25.23;58.70
48390;BME280;34643;47.964;7.982;2023-08-17T23:17:12;96697.28;;;25.23;58.70
48390;BME280;34643;47.964;7.982;2023-08-17T23:22:12;96702.56;;;25.23;58.76
48390;BME280;34643;47.964;7.982;2023-08-17T23:27:13;96703.38;;;25.23;58.67
48390;BME280;34643;47.964;7.982;2023-08-17T23:32:13;96691.16;;;25.22;58.90
48390;BME280;34643;47.964;7.982;2023-08-17T23:37:13;96692.81;;;25.23;58.77
48390;BME280;34643;47.964;7.982;2023-08-17T23:42:13;96694.81;;;25.21;58.68
48390;BME280;34643;47.964;7.982;2023-08-17T23:47:14;96689.53;;;25.21;58.67
48390;BME280;34643;47.964;7.982;2023-08-17T23:52:14;96691.16;;;25.22;58.65
48390;BME280;34643;47.964;7.982;2023-08-17T23:57:14;96688.72;;;25.21;58.57
